sensor_id;sensor_type;location;lat;lon;timestamp;temperature;humidity
21037;DHT22;10677;50.942;4.028;2022-10-16T00:00:31;14.60;99.90
21037;DHT22;10677;50.942;4.028;2022-10-16T00:02:56;14.70;99.90
21037;DHT22;10677;50.942;4.028;2022-10-16T00:05:22;14.60;99.90
21037;DHT22;10677;50.942;4.028;2022-10-16T00:07:47;14.70;99.90
21037;DHT22;10677;50.942;4.028;2022-10-16T00:10:13;14.70;99.90
21037;DHT22;10677;50.942;4.028;2022-10-16T00:12:39;14.70;99.90
21037;DHT22;10677;50.942;4.028;2022-10-16T00:15:05;14.70;99.90
21037;DHT22;10677;50.942;4.028;2022-10-16T00:17:31;14.70;99.90
21037;DHT22;10677;50.942;4.028;2022-10-16T00:19:57;14.70;99.90
21037;DHT22;10677;50.942;4.028;2022-10-16T00:22:23;14.60;99.90
21037;DHT22;10677;50.942;4.028;2022-10-16T00:24:49;14.60;99.90
21037;DHT22;10677;50.942;4.028;2022-10-16T00:27:14;14.60;99.90
21037;DHT22;10677;50.942;4.028;2022-10-16T00:29:40;14.50;99.90
21037;DHT22;10677;50.942;4.028;2022-10-16T00:32:05;14.50;99.90
21037;DHT22;10677;50.942;4.028;2022-10-16T00:34:31;14.50;99.90
21037;DHT22;10677;50.942;4.028;2022-10-16T00:36:57;14.50;99.90
21037;DHT22;10677;50.942;4.028;2022-10-16T00:39:22;14.50;99.90
21037;DHT22;10677;50.942;4.028;2022-10-16T00:41:49;14.50;99.90
21037;DHT22;10677;50.942;4.028;2022-10-16T00:47:20;14.50;99.90
21037;DHT22;10677;50.942;4.028;2022-10-16T00:49:47;14.50;99.90
21037;DHT22;10677;50.942;4.028;2022-10-16T00:52:14;14.40;99.90
21037;DHT22;10677;50.942;4.028;2022-10-16T00:54:40;14.40;99.90
21037;DHT22;10677;50.942;4.028;2022-10-16T00:57:06;14.40;99.90
21037;DHT22;10677;50.942;4.028;2022-10-16T00:59:38;14.40;99.90
21037;DHT22;10677;50.942;4.028;2022-10-16T01:02:06;14.40;99.90
21037;DHT22;10677;50.942;4.028;2022-10-16T01:04:37;14.40;99.90
21037;DHT22;10677;50.942;4.028;2022-10-16T01:10:11;14.40;99.90
21037;DHT22;10677;50.942;4.028;2022-10-16T01:12:48;14.40;99.90
21037;DHT22;10677;50.942;4.028;2022-10-16T01:17:59;14.30;99.90
21037;DHT22;10677;50.942;4.028;2022-10-16T01:20:33;14.30;99.90
21037;DHT22;10677;50.942;4.028;2022-10-16T01:31:09;14.20;99.90
21037;DHT22;10677;50.942;4.028;2022-10-16T01:33:42;14.30;99.90
21037;DHT22;10677;50.942;4.028;2022-10-16T01:36:15;14.20;99.90
21037;DHT22;10677;50.942;4.028;2022-10-16T01:38:43;14.20;99.90
21037;DHT22;10677;50.942;4.028;2022-10-16T01:41:24;14.20;99.90
21037;DHT22;10677;50.942;4.028;2022-10-16T01:46:22;14.20;99.90
21037;DHT22;10677;50.942;4.028;2022-10-16T01:48:49;14.20;99.90
21037;DHT22;10677;50.942;4.028;2022-10-16T01:51:17;14.10;99.90
21037;DHT22;10677;50.942;4.028;2022-10-16T01:53:49;14.10;99.90
21037;DHT22;10677;50.942;4.028;2022-10-16T01:56:18;14.10;99.90
21037;DHT22;10677;50.942;4.028;2022-10-16T01:58:47;14.10;99.90
21037;DHT22;10677;50.942;4.028;2022-10-16T02:01:16;14.10;99.90
21037;DHT22;10677;50.942;4.028;2022-10-16T02:03:43;14.10;99.90
21037;DHT22;10677;50.942;4.028;2022-10-16T02:06:10;14.00;99.90
21037;DHT22;10677;50.942;4.028;2022-10-16T02:08:36;14.10;99.90
21037;DHT22;10677;50.942;4.028;2022-10-16T02:11:02;14.10;99.90
21037;DHT22;10677;50.942;4.028;2022-10-16T02:13:42;14.20;99.90
21037;DHT22;10677;50.942;4.028;2022-10-16T02:16:11;14.20;99.90
21037;DHT22;10677;50.942;4.028;2022-10-16T02:18:38;14.20;99.90
21037;DHT22;10677;50.942;4.028;2022-10-16T02:21:22;14.10;99.90
21037;DHT22;10677;50.942;4.028;2022-10-16T02:26:34;14.00;99.90
21037;DHT22;10677;50.942;4.028;2022-10-16T02:29:03;14.00;99.90
21037;DHT22;10677;50.942;4.028;2022-10-16T02:31:34;14.00;99.90
21037;DHT22;10677;50.942;4.028;2022-10-16T02:34:03;14.00;99.90
21037;DHT22;10677;50.942;4.028;2022-10-16T02:36:31;14.10;99.90
21037;DHT22;10677;50.942;4.028;2022-10-16T02:38:58;14.10;99.90
21037;DHT22;10677;50.942;4.028;2022-10-16T02:41:26;14.00;99.90
21037;DHT22;10677;50.942;4.028;2022-10-16T02:43:52;14.00;99.90
21037;DHT22;10677;50.942;4.028;2022-10-16T02:46:18;14.00;99.90
21037;DHT22;10677;50.942;4.028;2022-10-16T02:48:44;13.90;99.90
21037;DHT22;10677;50.942;4.028;2022-10-16T02:51:10;13.80;99.90
21037;DHT22;10677;50.942;4.028;2022-10-16T02:53:35;13.90;99.90
21037;DHT22;10677;50.942;4.028;2022-10-16T02:56:01;13.90;99.90
21037;DHT22;10677;50.942;4.028;2022-10-16T02:58:26;13.90;99.90
21037;DHT22;10677;50.942;4.028;2022-10-16T03:00:52;14.00;99.90
21037;DHT22;10677;50.942;4.028;2022-10-16T03:03:18;14.00;99.90
21037;DHT22;10677;50.942;4.028;2022-10-16T03:05:44;14.00;99.90
21037;DHT22;10677;50.942;4.028;2022-10-16T03:08:11;14.00;99.90
21037;DHT22;10677;50.942;4.028;2022-10-16T03:10:37;13.90;99.90
21037;DHT22;10677;50.942;4.028;2022-10-16T03:13:03;13.90;99.90
21037;DHT22;10677;50.942;4.028;2022-10-16T03:15:28;13.90;99.90
21037;DHT22;10677;50.942;4.028;2022-10-16T03:17:55;13.90;99.90
21037;DHT22;10677;50.942;4.028;2022-10-16T03:20:22;13.90;99.90
21037;DHT22;10677;50.942;4.028;2022-10-16T03:22:48;13.90;99.90
21037;DHT22;10677;50.942;4.028;2022-10-16T03:25:13;13.90;99.90
21037;DHT22;10677;50.942;4.028;2022-10-16T03:27:39;14.00;99.90
21037;DHT22;10677;50.942;4.028;2022-10-16T03:30:05;14.00;99.90
21037;DHT22;10677;50.942;4.028;2022-10-16T03:32:31;14.10;99.90
21037;DHT22;10677;50.942;4.028;2022-10-16T03:34:56;14.10;99.90
21037;DHT22;10677;50.942;4.028;2022-10-16T03:37:22;14.20;99.90
21037;DHT22;10677;50.942;4.028;2022-10-16T03:39:48;14.20;99.90
21037;DHT22;10677;50.942;4.028;2022-10-16T03:42:13;14.20;99.90
21037;DHT22;10677;50.942;4.028;2022-10-16T03:44:39;14.30;99.90
21037;DHT22;10677;50.942;4.028;2022-10-16T03:47:04;14.20;99.90
21037;DHT22;10677;50.942;4.028;2022-10-16T03:49:30;14.20;99.90
21037;DHT22;10677;50.942;4.028;2022-10-16T03:51:55;14.20;99.90
21037;DHT22;10677;50.942;4.028;2022-10-16T03:54:21;14.20;99.90
21037;DHT22;10677;50.942;4.028;2022-10-16T03:56:47;14.30;99.90
21037;DHT22;10677;50.942;4.028;2022-10-16T03:59:13;14.30;99.90
21037;DHT22;10677;50.942;4.028;2022-10-16T04:01:39;14.20;99.90
21037;DHT22;10677;50.942;4.028;2022-10-16T04:04:04;14.20;99.90
21037;DHT22;10677;50.942;4.028;2022-10-16T04:06:30;14.20;99.90
21037;DHT22;10677;50.942;4.028;2022-10-16T04:08:55;14.20;99.90
21037;DHT22;10677;50.942;4.028;2022-10-16T04:11:21;14.20;99.90
21037;DHT22;10677;50.942;4.028;2022-10-16T04:13:47;14.20;99.90
21037;DHT22;10677;50.942;4.028;2022-10-16T04:16:13;14.20;99.90
21037;DHT22;10677;50.942;4.028;2022-10-16T04:18:38;14.20;99.90
21037;DHT22;10677;50.942;4.028;2022-10-16T04:21:05;14.20;99.90
21037;DHT22;10677;50.942;4.028;2022-10-16T04:23:31;14.20;99.90
21037;DHT22;10677;50.942;4.028;2022-10-16T04:25:57;14.20;99.90
21037;DHT22;10677;50.942;4.028;2022-10-16T04:28:23;14.20;99.90
21037;DHT22;10677;50.942;4.028;2022-10-16T04:30:49;14.10;99.90
21037;DHT22;10677;50.942;4.028;2022-10-16T04:33:14;14.00;99.90
21037;DHT22;10677;50.942;4.028;2022-10-16T04:35:40;14.00;99.90
21037;DHT22;10677;50.942;4.028;2022-10-16T04:38:06;14.00;99.90
21037;DHT22;10677;50.942;4.028;2022-10-16T04:40:31;14.00;99.90
21037;DHT22;10677;50.942;4.028;2022-10-16T04:43:05;14.10;99.90
21037;DHT22;10677;50.942;4.028;2022-10-16T04:45:31;14.10;99.90
21037;DHT22;10677;50.942;4.028;2022-10-16T04:47:58;14.00;99.90
21037;DHT22;10677;50.942;4.028;2022-10-16T04:50:23;14.00;99.90
21037;DHT22;10677;50.942;4.028;2022-10-16T04:52:49;13.90;99.90
21037;DHT22;10677;50.942;4.028;2022-10-16T04:55:15;13.90;99.90
21037;DHT22;10677;50.942;4.028;2022-10-16T04:57:41;13.80;99.90
21037;DHT22;10677;50.942;4.028;2022-10-16T05:00:06;13.80;99.90
21037;DHT22;10677;50.942;4.028;2022-10-16T05:02:33;13.80;99.90
21037;DHT22;10677;50.942;4.028;2022-10-16T05:04:59;13.80;99.90
21037;DHT22;10677;50.942;4.028;2022-10-16T05:07:24;13.70;99.90
21037;DHT22;10677;50.942;4.028;2022-10-16T05:09:50;13.70;99.90
21037;DHT22;10677;50.942;4.028;2022-10-16T05:12:16;13.70;99.90
21037;DHT22;10677;50.942;4.028;2022-10-16T05:14:42;13.80;99.90
21037;DHT22;10677;50.942;4.028;2022-10-16T05:17:07;13.80;99.90
21037;DHT22;10677;50.942;4.028;2022-10-16T05:19:33;13.80;99.90
21037;DHT22;10677;50.942;4.028;2022-10-16T05:21:58;13.80;99.90
21037;DHT22;10677;50.942;4.028;2022-10-16T05:24:24;13.70;99.90
21037;DHT22;10677;50.942;4.028;2022-10-16T05:26:50;13.70;99.90
21037;DHT22;10677;50.942;4.028;2022-10-16T05:29:16;13.60;99.90
21037;DHT22;10677;50.942;4.028;2022-10-16T05:31:42;13.70;99.90
21037;DHT22;10677;50.942;4.028;2022-10-16T05:34:07;13.70;99.90
21037;DHT22;10677;50.942;4.028;2022-10-16T05:36:33;13.70;99.90
21037;DHT22;10677;50.942;4.028;2022-10-16T05:38:58;13.70;99.90
21037;DHT22;10677;50.942;4.028;2022-10-16T05:41:24;13.70;99.90
21037;DHT22;10677;50.942;4.028;2022-10-16T05:43:51;13.70;99.90
21037;DHT22;10677;50.942;4.028;2022-10-16T05:46:18;13.80;99.90
21037;DHT22;10677;50.942;4.028;2022-10-16T05:48:43;13.80;99.90
21037;DHT22;10677;50.942;4.028;2022-10-16T05:51:12;13.80;99.90
21037;DHT22;10677;50.942;4.028;2022-10-16T05:53:38;14.00;99.90
21037;DHT22;10677;50.942;4.028;2022-10-16T05:56:05;14.00;99.90
21037;DHT22;10677;50.942;4.028;2022-10-16T05:58:34;14.10;99.90
21037;DHT22;10677;50.942;4.028;2022-10-16T06:01:10;14.10;99.90
21037;DHT22;10677;50.942;4.028;2022-10-16T06:03:36;14.10;99.90
21037;DHT22;10677;50.942;4.028;2022-10-16T06:06:13;14.20;99.90
21037;DHT22;10677;50.942;4.028;2022-10-16T06:08:39;14.20;99.90
21037;DHT22;10677;50.942;4.028;2022-10-16T06:11:08;14.20;99.90
21037;DHT22;10677;50.942;4.028;2022-10-16T06:13:34;14.20;99.90
21037;DHT22;10677;50.942;4.028;2022-10-16T06:16:00;14.20;99.90
21037;DHT22;10677;50.942;4.028;2022-10-16T06:18:27;14.20;99.90
21037;DHT22;10677;50.942;4.028;2022-10-16T06:20:53;14.20;99.90
21037;DHT22;10677;50.942;4.028;2022-10-16T06:23:19;14.10;99.90
21037;DHT22;10677;50.942;4.028;2022-10-16T06:25:44;14.20;99.90
21037;DHT22;10677;50.942;4.028;2022-10-16T06:28:10;14.10;99.90
21037;DHT22;10677;50.942;4.028;2022-10-16T06:30:36;14.10;99.90
21037;DHT22;10677;50.942;4.028;2022-10-16T06:33:01;14.20;99.90
21037;DHT22;10677;50.942;4.028;2022-10-16T06:35:27;14.10;99.90
21037;DHT22;10677;50.942;4.028;2022-10-16T06:37:54;14.10;99.90
21037;DHT22;10677;50.942;4.028;2022-10-16T06:40:20;14.00;99.90
21037;DHT22;10677;50.942;4.028;2022-10-16T06:42:45;14.10;99.90
21037;DHT22;10677;50.942;4.028;2022-10-16T06:45:11;14.00;99.90
21037;DHT22;10677;50.942;4.028;2022-10-16T06:47:38;14.00;99.90
21037;DHT22;10677;50.942;4.028;2022-10-16T06:50:04;14.00;99.90
21037;DHT22;10677;50.942;4.028;2022-10-16T06:52:32;14.00;99.90
21037;DHT22;10677;50.942;4.028;2022-10-16T06:54:57;14.00;99.90
21037;DHT22;10677;50.942;4.028;2022-10-16T06:57:23;14.00;99.90
21037;DHT22;10677;50.942;4.028;2022-10-16T06:59:49;14.00;99.90
21037;DHT22;10677;50.942;4.028;2022-10-16T07:02:14;14.10;99.90
21037;DHT22;10677;50.942;4.028;2022-10-16T07:04:40;14.10;99.90
21037;DHT22;10677;50.942;4.028;2022-10-16T07:07:05;14.10;99.90
21037;DHT22;10677;50.942;4.028;2022-10-16T07:09:31;14.10;99.90
21037;DHT22;10677;50.942;4.028;2022-10-16T07:11:57;14.20;99.90
21037;DHT22;10677;50.942;4.028;2022-10-16T07:14:22;14.30;99.90
21037;DHT22;10677;50.942;4.028;2022-10-16T07:16:48;14.30;99.90
21037;DHT22;10677;50.942;4.028;2022-10-16T07:19:15;14.30;99.90
21037;DHT22;10677;50.942;4.028;2022-10-16T07:21:42;14.30;99.90
21037;DHT22;10677;50.942;4.028;2022-10-16T07:24:13;14.50;99.90
21037;DHT22;10677;50.942;4.028;2022-10-16T07:26:40;14.50;99.90
21037;DHT22;10677;50.942;4.028;2022-10-16T07:29:18;14.50;99.90
21037;DHT22;10677;50.942;4.028;2022-10-16T07:31:44;14.50;99.90
21037;DHT22;10677;50.942;4.028;2022-10-16T07:34:11;14.60;99.90
21037;DHT22;10677;50.942;4.028;2022-10-16T07:36:38;14.70;99.90
21037;DHT22;10677;50.942;4.028;2022-10-16T07:39:03;14.70;99.90
21037;DHT22;10677;50.942;4.028;2022-10-16T07:41:30;14.80;99.90
21037;DHT22;10677;50.942;4.028;2022-10-16T07:43:58;14.80;99.90
21037;DHT22;10677;50.942;4.028;2022-10-16T07:46:26;14.90;99.90
21037;DHT22;10677;50.942;4.028;2022-10-16T07:48:52;14.90;99.90
21037;DHT22;10677;50.942;4.028;2022-10-16T07:51:19;14.90;99.90
21037;DHT22;10677;50.942;4.028;2022-10-16T07:53:46;14.90;99.90
21037;DHT22;10677;50.942;4.028;2022-10-16T07:56:13;15.00;99.90
21037;DHT22;10677;50.942;4.028;2022-10-16T07:58:39;15.00;99.90
21037;DHT22;10677;50.942;4.028;2022-10-16T08:01:07;15.00;99.90
21037;DHT22;10677;50.942;4.028;2022-10-16T08:03:33;15.00;99.90
21037;DHT22;10677;50.942;4.028;2022-10-16T08:05:59;15.10;99.90
21037;DHT22;10677;50.942;4.028;2022-10-16T08:08:25;15.10;99.90
21037;DHT22;10677;50.942;4.028;2022-10-16T08:10:51;15.20;99.90
21037;DHT22;10677;50.942;4.028;2022-10-16T08:13:17;15.30;99.90
21037;DHT22;10677;50.942;4.028;2022-10-16T08:15:43;15.30;99.90
21037;DHT22;10677;50.942;4.028;2022-10-16T08:18:11;15.30;99.90
21037;DHT22;10677;50.942;4.028;2022-10-16T08:20:37;15.30;99.90
21037;DHT22;10677;50.942;4.028;2022-10-16T08:23:03;15.40;99.90
21037;DHT22;10677;50.942;4.028;2022-10-16T08:25:28;15.40;99.90
21037;DHT22;10677;50.942;4.028;2022-10-16T08:27:54;15.50;99.90
21037;DHT22;10677;50.942;4.028;2022-10-16T08:30:22;15.60;99.90
21037;DHT22;10677;50.942;4.028;2022-10-16T08:32:48;15.60;99.90
21037;DHT22;10677;50.942;4.028;2022-10-16T08:35:14;15.70;99.90
21037;DHT22;10677;50.942;4.028;2022-10-16T08:37:40;15.70;99.90
21037;DHT22;10677;50.942;4.028;2022-10-16T08:40:12;15.70;99.90
21037;DHT22;10677;50.942;4.028;2022-10-16T08:42:52;15.70;99.90
21037;DHT22;10677;50.942;4.028;2022-10-16T08:48:43;15.80;99.90
21037;DHT22;10677;50.942;4.028;2022-10-16T08:51:15;15.90;99.90
21037;DHT22;10677;50.942;4.028;2022-10-16T08:56:12;16.00;99.90
21037;DHT22;10677;50.942;4.028;2022-10-16T08:58:37;16.00;99.90
21037;DHT22;10677;50.942;4.028;2022-10-16T09:01:10;16.00;99.90
21037;DHT22;10677;50.942;4.028;2022-10-16T09:04:16;16.10;99.90
21037;DHT22;10677;50.942;4.028;2022-10-16T09:06:57;16.30;99.90
21037;DHT22;10677;50.942;4.028;2022-10-16T09:15:01;16.40;99.90
21037;DHT22;10677;50.942;4.028;2022-10-16T09:20:34;16.50;99.90
21037;DHT22;10677;50.942;4.028;2022-10-16T09:25:31;16.60;99.90
21037;DHT22;10677;50.942;4.028;2022-10-16T09:27:57;16.60;99.90
21037;DHT22;10677;50.942;4.028;2022-10-16T09:30:29;16.70;99.90
21037;DHT22;10677;50.942;4.028;2022-10-16T09:32:55;16.70;99.90
21037;DHT22;10677;50.942;4.028;2022-10-16T09:35:58;16.80;99.90
21037;DHT22;10677;50.942;4.028;2022-10-16T09:38:32;16.80;99.90
21037;DHT22;10677;50.942;4.028;2022-10-16T09:41:03;17.00;99.90
21037;DHT22;10677;50.942;4.028;2022-10-16T09:43:51;17.00;99.90
21037;DHT22;10677;50.942;4.028;2022-10-16T09:46:32;17.00;99.90
21037;DHT22;10677;50.942;4.028;2022-10-16T09:49:00;17.10;99.90
21037;DHT22;10677;50.942;4.028;2022-10-16T09:51:32;17.20;99.90
21037;DHT22;10677;50.942;4.028;2022-10-16T09:54:15;17.30;99.90
21037;DHT22;10677;50.942;4.028;2022-10-16T09:56:41;17.30;99.90
21037;DHT22;10677;50.942;4.028;2022-10-16T09:59:15;17.30;99.90
21037;DHT22;10677;50.942;4.028;2022-10-16T10:01:45;17.30;99.90
21037;DHT22;10677;50.942;4.028;2022-10-16T10:04:11;17.40;99.90
21037;DHT22;10677;50.942;4.028;2022-10-16T10:06:44;17.40;99.90
21037;DHT22;10677;50.942;4.028;2022-10-16T10:09:15;17.50;99.90
21037;DHT22;10677;50.942;4.028;2022-10-16T10:11:48;17.50;99.90
21037;DHT22;10677;50.942;4.028;2022-10-16T10:16:52;17.50;99.90
21037;DHT22;10677;50.942;4.028;2022-10-16T10:19:21;17.60;99.90
21037;DHT22;10677;50.942;4.028;2022-10-16T10:21:48;17.80;99.90
21037;DHT22;10677;50.942;4.028;2022-10-16T10:24:17;17.90;99.90
21037;DHT22;10677;50.942;4.028;2022-10-16T10:40:15;18.20;99.90
21037;DHT22;10677;50.942;4.028;2022-10-16T10:45:27;18.10;99.90
21037;DHT22;10677;50.942;4.028;2022-10-16T10:59:27;18.50;99.90
21037;DHT22;10677;50.942;4.028;2022-10-16T11:08:00;18.60;99.90
21037;DHT22;10677;50.942;4.028;2022-10-16T11:10:34;18.70;99.90
21037;DHT22;10677;50.942;4.028;2022-10-16T11:13:47;18.70;99.90
21037;DHT22;10677;50.942;4.028;2022-10-16T11:16:22;18.80;99.90
21037;DHT22;10677;50.942;4.028;2022-10-16T11:25:02;18.80;99.90
21037;DHT22;10677;50.942;4.028;2022-10-16T11:27:39;18.90;99.90
21037;DHT22;10677;50.942;4.028;2022-10-16T11:35:23;19.00;99.90
21037;DHT22;10677;50.942;4.028;2022-10-16T11:37:50;19.20;99.90
21037;DHT22;10677;50.942;4.028;2022-10-16T11:40:31;19.40;99.90
21037;DHT22;10677;50.942;4.028;2022-10-16T11:43:22;19.60;99.90
21037;DHT22;10677;50.942;4.028;2022-10-16T11:45:52;19.70;99.90
21037;DHT22;10677;50.942;4.028;2022-10-16T11:48:43;19.60;99.90
21037;DHT22;10677;50.942;4.028;2022-10-16T11:51:15;19.60;99.90
21037;DHT22;10677;50.942;4.028;2022-10-16T11:53:56;19.70;99.90
21037;DHT22;10677;50.942;4.028;2022-10-16T11:56:23;19.80;99.90
21037;DHT22;10677;50.942;4.028;2022-10-16T11:58:55;19.70;99.90
21037;DHT22;10677;50.942;4.028;2022-10-16T12:01:38;19.60;99.90
21037;DHT22;10677;50.942;4.028;2022-10-16T12:04:14;20.00;99.90
21037;DHT22;10677;50.942;4.028;2022-10-16T12:07:14;20.30;99.90
21037;DHT22;10677;50.942;4.028;2022-10-16T12:09:43;20.40;99.90
21037;DHT22;10677;50.942;4.028;2022-10-16T12:12:26;20.50;99.90
21037;DHT22;10677;50.942;4.028;2022-10-16T12:17:49;20.60;99.90
21037;DHT22;10677;50.942;4.028;2022-10-16T12:20:19;20.60;99.90
21037;DHT22;10677;50.942;4.028;2022-10-16T12:22:51;20.60;99.90
21037;DHT22;10677;50.942;4.028;2022-10-16T12:25:33;20.50;99.90
21037;DHT22;10677;50.942;4.028;2022-10-16T12:28:06;20.50;99.90
21037;DHT22;10677;50.942;4.028;2022-10-16T12:30:35;20.50;99.90
21037;DHT22;10677;50.942;4.028;2022-10-16T12:33:06;20.60;99.90
21037;DHT22;10677;50.942;4.028;2022-10-16T12:35:45;20.60;99.90
21037;DHT22;10677;50.942;4.028;2022-10-16T12:40:44;20.60;99.90
21037;DHT22;10677;50.942;4.028;2022-10-16T12:43:25;20.60;99.90
21037;DHT22;10677;50.942;4.028;2022-10-16T12:48:30;20.60;99.90
21037;DHT22;10677;50.942;4.028;2022-10-16T12:50:56;20.70;99.90
21037;DHT22;10677;50.942;4.028;2022-10-16T12:53:24;20.60;99.90
21037;DHT22;10677;50.942;4.028;2022-10-16T12:56:03;20.70;99.90
21037;DHT22;10677;50.942;4.028;2022-10-16T13:01:37;20.90;99.90
21037;DHT22;10677;50.942;4.028;2022-10-16T13:04:14;21.10;99.90
21037;DHT22;10677;50.942;4.028;2022-10-16T13:12:41;21.20;99.90
21037;DHT22;10677;50.942;4.028;2022-10-16T13:18:22;20.60;99.90
21037;DHT22;10677;50.942;4.028;2022-10-16T13:23:47;20.60;99.90
21037;DHT22;10677;50.942;4.028;2022-10-16T13:28:41;20.70;99.90
21037;DHT22;10677;50.942;4.028;2022-10-16T13:31:21;20.70;99.90
21037;DHT22;10677;50.942;4.028;2022-10-16T13:33:51;20.80;99.90
21037;DHT22;10677;50.942;4.028;2022-10-16T13:36:22;20.90;99.90
21037;DHT22;10677;50.942;4.028;2022-10-16T13:38:48;20.90;99.90
21037;DHT22;10677;50.942;4.028;2022-10-16T13:41:24;20.90;99.90
21037;DHT22;10677;50.942;4.028;2022-10-16T13:43:52;20.90;99.90
21037;DHT22;10677;50.942;4.028;2022-10-16T13:46:21;21.00;99.90
21037;DHT22;10677;50.942;4.028;2022-10-16T13:51:22;20.80;99.90
21037;DHT22;10677;50.942;4.028;2022-10-16T13:53:48;20.60;99.90
21037;DHT22;10677;50.942;4.028;2022-10-16T13:56:19;20.50;99.90
21037;DHT22;10677;50.942;4.028;2022-10-16T13:58:45;20.50;99.90
21037;DHT22;10677;50.942;4.028;2022-10-16T14:01:18;20.50;99.90
21037;DHT22;10677;50.942;4.028;2022-10-16T14:03:45;20.60;99.90
21037;DHT22;10677;50.942;4.028;2022-10-16T14:06:15;20.70;99.90
21037;DHT22;10677;50.942;4.028;2022-10-16T14:08:47;20.80;99.90
21037;DHT22;10677;50.942;4.028;2022-10-16T14:11:23;20.90;99.90
21037;DHT22;10677;50.942;4.028;2022-10-16T14:13:50;20.90;99.90
21037;DHT22;10677;50.942;4.028;2022-10-16T14:16:25;21.20;99.90
21037;DHT22;10677;50.942;4.028;2022-10-16T14:19:00;21.60;99.90
21037;DHT22;10677;50.942;4.028;2022-10-16T14:21:27;21.80;99.90
21037;DHT22;10677;50.942;4.028;2022-10-16T14:23:54;23.20;99.90
21037;DHT22;10677;50.942;4.028;2022-10-16T14:26:23;25.00;99.90
21037;DHT22;10677;50.942;4.028;2022-10-16T14:29:00;24.10;99.90
21037;DHT22;10677;50.942;4.028;2022-10-16T14:33:53;23.20;99.90
21037;DHT22;10677;50.942;4.028;2022-10-16T14:36:19;22.70;99.90
21037;DHT22;10677;50.942;4.028;2022-10-16T14:39:00;22.20;99.90
21037;DHT22;10677;50.942;4.028;2022-10-16T14:41:28;21.80;99.90
21037;DHT22;10677;50.942;4.028;2022-10-16T14:43:56;21.30;99.90
21037;DHT22;10677;50.942;4.028;2022-10-16T14:46:29;20.80;99.90
21037;DHT22;10677;50.942;4.028;2022-10-16T14:51:31;20.50;99.90
21037;DHT22;10677;50.942;4.028;2022-10-16T14:53:57;20.30;99.90
21037;DHT22;10677;50.942;4.028;2022-10-16T14:56:25;20.20;99.90
21037;DHT22;10677;50.942;4.028;2022-10-16T14:58:54;20.20;99.90
21037;DHT22;10677;50.942;4.028;2022-10-16T15:01:20;20.30;99.90
21037;DHT22;10677;50.942;4.028;2022-10-16T15:03:46;20.30;99.90
21037;DHT22;10677;50.942;4.028;2022-10-16T15:06:14;20.40;99.90
21037;DHT22;10677;50.942;4.028;2022-10-16T15:08:40;20.50;99.90
21037;DHT22;10677;50.942;4.028;2022-10-16T15:11:16;20.50;99.90
21037;DHT22;10677;50.942;4.028;2022-10-16T15:13:43;20.50;99.90
21037;DHT22;10677;50.942;4.028;2022-10-16T15:16:14;20.50;99.90
21037;DHT22;10677;50.942;4.028;2022-10-16T15:18:40;20.40;99.90
21037;DHT22;10677;50.942;4.028;2022-10-16T15:21:06;20.20;99.90
21037;DHT22;10677;50.942;4.028;2022-10-16T15:23:31;20.30;99.90
21037;DHT22;10677;50.942;4.028;2022-10-16T15:25:57;20.30;99.90
21037;DHT22;10677;50.942;4.028;2022-10-16T15:28:24;20.40;99.90
21037;DHT22;10677;50.942;4.028;2022-10-16T15:30:53;20.30;99.90
21037;DHT22;10677;50.942;4.028;2022-10-16T15:33:21;20.10;99.90
21037;DHT22;10677;50.942;4.028;2022-10-16T15:35:50;20.00;99.90
21037;DHT22;10677;50.942;4.028;2022-10-16T15:38:17;20.10;99.90
21037;DHT22;10677;50.942;4.028;2022-10-16T15:40:44;20.20;99.90
21037;DHT22;10677;50.942;4.028;2022-10-16T15:43:09;20.10;99.90
21037;DHT22;10677;50.942;4.028;2022-10-16T15:45:35;20.00;99.90
21037;DHT22;10677;50.942;4.028;2022-10-16T15:48:01;19.90;99.90
21037;DHT22;10677;50.942;4.028;2022-10-16T15:50:27;19.80;99.90
21037;DHT22;10677;50.942;4.028;2022-10-16T15:52:53;19.80;99.90
21037;DHT22;10677;50.942;4.028;2022-10-16T15:55:18;19.80;99.90
21037;DHT22;10677;50.942;4.028;2022-10-16T15:57:45;19.70;99.90
21037;DHT22;10677;50.942;4.028;2022-10-16T16:00:16;19.80;99.90
21037;DHT22;10677;50.942;4.028;2022-10-16T16:02:43;19.50;99.90
21037;DHT22;10677;50.942;4.028;2022-10-16T16:05:10;19.40;99.90
21037;DHT22;10677;50.942;4.028;2022-10-16T16:07:37;19.50;99.90
21037;DHT22;10677;50.942;4.028;2022-10-16T16:10:05;19.60;99.90
21037;DHT22;10677;50.942;4.028;2022-10-16T16:12:32;19.40;99.90
21037;DHT22;10677;50.942;4.028;2022-10-16T16:14:58;19.20;99.90
21037;DHT22;10677;50.942;4.028;2022-10-16T16:17:23;19.10;99.90
21037;DHT22;10677;50.942;4.028;2022-10-16T16:19:50;19.40;99.90
21037;DHT22;10677;50.942;4.028;2022-10-16T16:22:15;19.50;99.90
21037;DHT22;10677;50.942;4.028;2022-10-16T16:24:41;19.40;99.90
21037;DHT22;10677;50.942;4.028;2022-10-16T16:27:07;19.30;99.90
21037;DHT22;10677;50.942;4.028;2022-10-16T16:29:33;19.30;99.90
21037;DHT22;10677;50.942;4.028;2022-10-16T16:31:59;19.30;99.90
21037;DHT22;10677;50.942;4.028;2022-10-16T16:34:26;19.10;99.90
21037;DHT22;10677;50.942;4.028;2022-10-16T16:36:53;19.10;99.90
21037;DHT22;10677;50.942;4.028;2022-10-16T16:39:19;19.00;99.90
21037;DHT22;10677;50.942;4.028;2022-10-16T16:41:44;19.20;99.90
21037;DHT22;10677;50.942;4.028;2022-10-16T16:44:14;19.20;99.90
21037;DHT22;10677;50.942;4.028;2022-10-16T16:46:40;19.20;99.90
21037;DHT22;10677;50.942;4.028;2022-10-16T16:49:12;19.10;99.90
21037;DHT22;10677;50.942;4.028;2022-10-16T16:51:39;19.00;99.90
21037;DHT22;10677;50.942;4.028;2022-10-16T16:54:05;19.00;99.90
21037;DHT22;10677;50.942;4.028;2022-10-16T16:56:32;18.90;99.90
21037;DHT22;10677;50.942;4.028;2022-10-16T16:58:59;19.00;99.90
21037;DHT22;10677;50.942;4.028;2022-10-16T17:01:25;19.00;99.90
21037;DHT22;10677;50.942;4.028;2022-10-16T17:03:53;19.00;99.90
21037;DHT22;10677;50.942;4.028;2022-10-16T17:06:25;19.10;99.90
21037;DHT22;10677;50.942;4.028;2022-10-16T17:08:50;19.10;99.90
21037;DHT22;10677;50.942;4.028;2022-10-16T17:11:19;19.10;99.90
21037;DHT22;10677;50.942;4.028;2022-10-16T17:13:45;19.10;99.90
21037;DHT22;10677;50.942;4.028;2022-10-16T17:16:10;19.10;99.90
21037;DHT22;10677;50.942;4.028;2022-10-16T17:18:36;19.10;99.90
21037;DHT22;10677;50.942;4.028;2022-10-16T17:21:04;19.00;99.90
21037;DHT22;10677;50.942;4.028;2022-10-16T17:23:31;19.10;99.90
21037;DHT22;10677;50.942;4.028;2022-10-16T17:25:57;18.90;99.90
21037;DHT22;10677;50.942;4.028;2022-10-16T17:28:27;18.70;99.90
21037;DHT22;10677;50.942;4.028;2022-10-16T17:30:53;18.60;99.90
21037;DHT22;10677;50.942;4.028;2022-10-16T17:33:18;18.30;99.90
21037;DHT22;10677;50.942;4.028;2022-10-16T17:35:45;18.20;99.90
21037;DHT22;10677;50.942;4.028;2022-10-16T17:38:13;18.30;99.90